Terminal Aerodrome Forecast
Issued by NWS

Home | Current Version | Previous Version | Text Only | Print | Product List | Glossary On
Versions: 1 2 3 4 5 6 7 8 9 10 11 12 13 14
062
FTUS43 KJKL 030539
TAFSME
TAF
KSME 030539Z 0306/0406 19017G32KT 6SM SHRA OVC035
     FM030800 21015G26KT 2SM +SHRA OVC020
     FM031200 23012KT 4SM -SHRA OVC030
     FM031500 24011G20KT P6SM VCSH SCT040
     FM032000 25008G15KT P6SM SKC=

USA.gov is the U.S. government's official web portal to all federal, state and local government web resources and services.